createdAt,value
2019-06-20T00:02:05.624Z,23.80
2019-06-20T00:04:32.415Z,23.90
2019-06-20T00:06:59.115Z,23.90
2019-06-20T00:09:25.827Z,23.90
2019-06-20T00:11:52.754Z,23.90
2019-06-20T00:14:19.442Z,23.90
2019-06-20T00:16:46.481Z,23.80
2019-06-20T00:19:13.155Z,23.90
2019-06-20T00:21:40.283Z,23.80
2019-06-20T00:24:07.322Z,23.80
2019-06-20T00:26:34.142Z,23.70
2019-06-20T00:29:00.865Z,23.70
2019-06-20T00:31:27.808Z,23.80
2019-06-20T00:33:54.521Z,23.80
2019-06-20T00:36:21.277Z,23.70
2019-06-20T00:38:48.016Z,23.70
2019-06-20T00:41:14.700Z,23.60
2019-06-20T00:43:41.409Z,23.60
2019-06-20T00:46:08.190Z,23.60
2019-06-20T00:48:35.251Z,23.60
2019-06-20T00:51:02.233Z,23.60
2019-06-20T00:53:29.168Z,23.50
2019-06-20T00:55:55.862Z,23.50
2019-06-20T00:58:22.885Z,23.50
2019-06-20T01:00:49.687Z,23.40
2019-06-20T01:03:16.727Z,23.30
2019-06-20T01:05:43.680Z,23.20
2019-06-20T01:08:10.692Z,23.00
2019-06-20T01:10:37.403Z,22.90
2019-06-20T01:13:04.088Z,22.90
2019-06-20T01:15:31.009Z,22.90
2019-06-20T01:17:57.679Z,23.00
2019-06-20T01:20:24.671Z,23.00
2019-06-20T01:22:51.672Z,22.90
2019-06-20T01:25:36.847Z,22.90
2019-06-20T01:28:03.868Z,22.80
2019-06-20T01:30:30.763Z,22.70
2019-06-20T01:32:57.748Z,22.60
2019-06-20T01:35:24.439Z,22.60
2019-06-20T01:37:51.467Z,22.50
2019-06-20T01:40:18.264Z,22.50
2019-06-20T01:42:45.265Z,22.40
2019-06-20T01:45:12.462Z,22.50
2019-06-20T01:47:41.947Z,22.50
2019-06-20T01:50:08.836Z,22.30
2019-06-20T01:52:35.902Z,22.10
2019-06-20T01:55:04.016Z,22.00
2019-06-20T01:57:30.714Z,22.00
2019-06-20T01:59:57.437Z,22.00
2019-06-20T02:02:24.375Z,22.10
2019-06-20T02:04:51.357Z,22.00
2019-06-20T02:07:18.043Z,22.00
2019-06-20T02:09:44.869Z,22.00
2019-06-20T02:12:11.836Z,22.00
2019-06-20T02:14:38.662Z,22.00
2019-06-20T02:17:05.544Z,22.00
2019-06-20T02:19:32.519Z,21.80
2019-06-20T02:21:59.310Z,21.80
2019-06-20T02:24:26.124Z,21.70
2019-06-20T02:26:53.027Z,21.70
2019-06-20T02:29:19.833Z,21.60
2019-06-20T02:31:46.637Z,21.50
2019-06-20T02:34:13.634Z,21.60
2019-06-20T02:36:40.329Z,21.50
2019-06-20T02:39:07.679Z,21.40
2019-06-20T02:41:34.827Z,21.40
2019-06-20T02:44:01.659Z,21.40
2019-06-20T02:46:28.569Z,21.30
2019-06-20T02:48:55.264Z,21.30
2019-06-20T02:51:24.269Z,21.30
2019-06-20T02:53:51.368Z,21.20
2019-06-20T02:56:18.107Z,21.10
2019-06-20T02:58:44.795Z,21.00
2019-06-20T03:01:11.528Z,20.90
2019-06-20T03:03:38.212Z,20.90
2019-06-20T03:06:05.138Z,20.80
2019-06-20T03:08:31.847Z,20.70
2019-06-20T03:10:58.572Z,20.60
2019-06-20T03:13:25.606Z,20.50
2019-06-20T03:15:52.701Z,20.50
2019-06-20T03:18:19.432Z,20.50
2019-06-20T03:20:46.403Z,20.40
2019-06-20T03:23:13.403Z,20.40
2019-06-20T03:25:40.340Z,20.40
2019-06-20T03:28:07.133Z,20.40
2019-06-20T03:30:33.880Z,20.40
2019-06-20T03:33:01.333Z,20.50
2019-06-20T03:35:28.287Z,20.60
2019-06-20T03:37:55.250Z,20.50
2019-06-20T03:40:22.088Z,20.50
2019-06-20T03:42:49.153Z,20.60
2019-06-20T03:45:16.302Z,20.60
2019-06-20T03:47:43.595Z,20.60
2019-06-20T03:50:10.819Z,20.50
2019-06-20T03:52:37.773Z,20.50
2019-06-20T03:55:04.999Z,20.40
2019-06-20T03:57:31.736Z,20.50
2019-06-20T03:59:58.429Z,20.50
2019-06-20T04:02:25.167Z,20.40
2019-06-20T04:04:51.856Z,20.50
2019-06-20T04:07:18.884Z,20.60
2019-06-20T04:09:45.819Z,20.60
2019-06-20T04:12:12.542Z,20.60
2019-06-20T04:14:39.241Z,20.80
2019-06-20T04:17:06.289Z,20.70
2019-06-20T04:19:32.994Z,20.70
2019-06-20T04:22:00.442Z,20.80
2019-06-20T04:24:28.109Z,20.90
2019-06-20T04:26:55.136Z,21.00
2019-06-20T04:29:21.943Z,21.00
2019-06-20T04:31:48.765Z,21.10
2019-06-20T04:34:15.791Z,21.10
2019-06-20T04:36:42.859Z,21.20
2019-06-20T04:39:18.649Z,21.30
2019-06-20T04:41:38.176Z,21.50
2019-06-20T04:44:05.066Z,21.80
2019-06-20T04:46:37.971Z,22.20
2019-06-20T04:49:04.830Z,22.50
2019-06-20T04:51:31.753Z,22.80
2019-06-20T04:53:58.709Z,23.00
2019-06-20T04:56:25.404Z,23.30
2019-06-20T04:58:52.103Z,23.30
2019-06-20T05:01:18.887Z,23.20
2019-06-20T05:03:45.725Z,23.20
2019-06-20T05:06:12.596Z,23.30
2019-06-20T05:08:39.308Z,23.90
2019-06-20T05:11:05.992Z,26.50
2019-06-20T05:13:32.706Z,29.20
2019-06-20T05:15:59.380Z,31.90
2019-06-20T05:18:26.326Z,33.50
2019-06-20T05:20:53.119Z,33.50
2019-06-20T05:23:19.827Z,33.40
2019-06-20T05:25:46.987Z,32.40
2019-06-20T05:28:13.970Z,32.10
2019-06-20T05:30:40.983Z,31.50
2019-06-20T05:33:07.701Z,31.30
2019-06-20T05:35:34.642Z,31.30
2019-06-20T05:38:01.348Z,30.50
2019-06-20T05:40:28.028Z,30.00
2019-06-20T05:42:54.968Z,30.20
2019-06-20T05:45:21.868Z,30.20
2019-06-20T05:47:49.787Z,31.00
2019-06-20T05:50:16.798Z,31.60
2019-06-20T05:52:44.075Z,33.20
2019-06-20T05:55:11.868Z,33.20
2019-06-20T05:57:39.072Z,33.30
2019-06-20T06:00:06.346Z,36.10
2019-06-20T06:02:33.041Z,37.90
2019-06-20T06:04:59.996Z,37.60
2019-06-20T06:07:26.689Z,36.60
2019-06-20T06:09:53.623Z,36.90
2019-06-20T06:12:20.323Z,37.40
2019-06-20T06:14:47.048Z,37.00
2019-06-20T06:17:14.116Z,38.70
2019-06-20T06:19:40.807Z,39.00
2019-06-20T06:22:07.768Z,40.20
2019-06-20T06:24:34.586Z,38.50
2019-06-20T06:27:01.363Z,36.80
2019-06-20T06:29:28.065Z,37.10
2019-06-20T06:31:54.888Z,38.50
2019-06-20T06:34:22.167Z,38.50
2019-06-20T06:36:49.450Z,37.30
2019-06-20T06:39:16.565Z,36.30
2019-06-20T06:41:43.310Z,35.80
2019-06-20T06:44:10.409Z,35.70
2019-06-20T06:46:45.018Z,35.20
2019-06-20T06:49:06.183Z,35.00
2019-06-20T06:51:33.139Z,36.60
2019-06-20T06:53:59.951Z,38.60
2019-06-20T06:56:26.773Z,39.40
2019-06-20T06:58:53.631Z,39.50
2019-06-20T07:01:20.329Z,39.50
2019-06-20T07:03:47.053Z,38.90
2019-06-20T07:06:13.787Z,39.20
2019-06-20T07:08:40.506Z,36.50
2019-06-20T07:11:07.308Z,33.90
2019-06-20T07:13:34.054Z,32.50
2019-06-20T07:16:01.022Z,31.70
2019-06-20T07:18:28.170Z,33.20
2019-06-20T07:20:55.196Z,33.90
2019-06-20T07:23:22.335Z,33.00
2019-06-20T07:25:49.477Z,32.20
2019-06-20T07:28:16.261Z,31.20
2019-06-20T07:30:42.983Z,30.20
2019-06-20T07:33:09.814Z,29.80
2019-06-20T07:35:36.518Z,29.50
2019-06-20T07:38:03.421Z,28.80
2019-06-20T07:40:30.138Z,28.70
2019-06-20T07:42:57.187Z,28.60
2019-06-20T07:45:27.266Z,28.60
2019-06-20T07:47:54.933Z,28.40
2019-06-20T07:50:21.884Z,28.40
2019-06-20T07:53:01.569Z,28.50
2019-06-20T07:55:17.839Z,28.50
2019-06-20T07:57:44.777Z,28.50
2019-06-20T08:00:12.315Z,28.80
2019-06-20T08:02:39.629Z,28.80
2019-06-20T08:05:07.251Z,29.50
2019-06-20T08:07:34.207Z,29.90
2019-06-20T08:10:01.135Z,30.50
2019-06-20T08:12:28.328Z,30.70
2019-06-20T08:14:55.107Z,30.80
2019-06-20T08:17:34.736Z,31.20
2019-06-20T08:19:50.427Z,31.20
2019-06-20T08:22:17.265Z,31.00
2019-06-20T08:24:43.959Z,30.70
2019-06-20T08:27:10.721Z,30.50
2019-06-20T08:29:37.988Z,30.20
2019-06-20T08:32:04.909Z,30.30
2019-06-20T08:34:31.956Z,30.20
2019-06-20T08:36:59.385Z,30.20
2019-06-20T08:39:29.365Z,30.40
2019-06-20T08:41:57.175Z,30.70
2019-06-20T08:44:24.694Z,30.70
2019-06-20T08:46:51.392Z,30.60
2019-06-20T08:49:18.204Z,30.40
2019-06-20T08:51:45.183Z,30.60
2019-06-20T08:54:11.913Z,30.60
2019-06-20T08:56:38.701Z,30.70
2019-06-20T08:59:05.876Z,31.00
2019-06-20T09:01:32.847Z,31.30
2019-06-20T09:04:00.101Z,31.70
2019-06-20T09:06:26.973Z,32.00
2019-06-20T09:08:53.843Z,32.50
2019-06-20T09:11:22.181Z,32.80
2019-06-20T09:13:48.865Z,32.50
2019-06-20T09:16:24.359Z,32.50
2019-06-20T09:18:44.272Z,32.50
2019-06-20T09:21:11.132Z,32.70
2019-06-20T09:23:37.935Z,32.60
2019-06-20T09:26:04.651Z,32.60
2019-06-20T09:28:31.624Z,32.20
2019-06-20T09:30:59.245Z,32.40
2019-06-20T09:33:26.376Z,32.00
2019-06-20T09:35:53.986Z,31.80
2019-06-20T09:38:23.211Z,31.80
2019-06-20T09:40:51.910Z,31.80
2019-06-20T09:43:27.602Z,32.20
2019-06-20T09:45:49.735Z,32.70
2019-06-20T09:48:17.878Z,33.10
2019-06-20T09:50:44.671Z,33.20
2019-06-20T09:53:11.426Z,33.60
2019-06-20T09:55:38.633Z,33.60
2019-06-20T09:58:05.436Z,33.40
2019-06-20T10:00:32.951Z,33.60
2019-06-20T10:02:59.963Z,33.90
2019-06-20T10:05:26.994Z,34.00
2019-06-20T10:07:56.771Z,33.80
2019-06-20T10:10:27.204Z,34.00
2019-06-20T10:12:54.187Z,33.90
2019-06-20T10:15:23.071Z,33.80
2019-06-20T10:17:50.776Z,33.40
2019-06-20T10:20:17.848Z,33.30
2019-06-20T10:22:45.855Z,33.40
2019-06-20T10:25:13.767Z,33.10
2019-06-20T10:27:40.632Z,33.00
2019-06-20T10:30:14.378Z,32.80
2019-06-20T10:32:37.943Z,32.80
2019-06-20T10:35:04.924Z,32.90
2019-06-20T10:37:31.631Z,32.90
2019-06-20T10:39:58.323Z,32.20
2019-06-20T10:42:25.043Z,32.50
2019-06-20T10:44:52.189Z,32.70
2019-06-20T10:47:31.700Z,32.50
2019-06-20T10:49:47.987Z,32.80
2019-06-20T10:52:15.993Z,32.70
2019-06-20T10:54:43.321Z,32.30
2019-06-20T10:57:10.355Z,32.60
2019-06-20T10:59:37.096Z,32.60
2019-06-20T11:02:07.174Z,32.20
2019-06-20T11:04:32.583Z,32.00
2019-06-20T11:06:59.276Z,31.80
2019-06-20T11:09:25.979Z,31.90
2019-06-20T11:11:52.680Z,31.60
2019-06-20T11:14:19.630Z,31.10
2019-06-20T11:16:47.183Z,30.40
2019-06-20T11:19:13.982Z,29.70
2019-06-20T11:21:41.599Z,28.70
2019-06-20T11:24:08.495Z,28.10
2019-06-20T11:26:37.754Z,28.50
2019-06-20T11:29:04.255Z,28.90
2019-06-20T11:31:31.248Z,28.40
2019-06-20T11:33:58.209Z,29.00
2019-06-20T11:36:24.905Z,29.40
2019-06-20T11:38:51.584Z,29.80
2019-06-20T11:41:18.420Z,30.30
2019-06-20T11:43:45.116Z,30.10
2019-06-20T11:46:12.240Z,30.30
2019-06-20T11:48:38.948Z,29.10
2019-06-20T11:51:05.881Z,28.90
2019-06-20T11:53:33.656Z,29.00
2019-06-20T11:56:01.458Z,29.50
2019-06-20T11:58:28.400Z,29.50
2019-06-20T12:01:03.427Z,29.20
2019-06-20T12:03:23.966Z,28.30
2019-06-20T12:05:50.656Z,28.30
2019-06-20T12:08:17.404Z,28.60
2019-06-20T12:10:45.184Z,28.70
2019-06-20T12:13:12.017Z,28.80
2019-06-20T12:15:39.749Z,28.90
2019-06-20T12:18:07.529Z,28.80
2019-06-20T12:20:34.444Z,29.20
2019-06-20T12:23:01.255Z,29.50
2019-06-20T12:25:28.011Z,30.20
2019-06-20T12:27:54.729Z,30.60
2019-06-20T12:30:22.074Z,30.70
2019-06-20T12:32:49.333Z,30.90
2019-06-20T12:35:16.579Z,30.80
2019-06-20T12:37:43.413Z,30.60
2019-06-20T12:40:10.893Z,30.40
2019-06-20T12:42:40.886Z,29.90
2019-06-20T12:45:08.445Z,29.90
2019-06-20T12:47:35.378Z,30.00
2019-06-20T12:50:02.193Z,30.00
2019-06-20T12:52:29.099Z,29.50
2019-06-20T12:54:56.147Z,28.80
2019-06-20T12:57:23.036Z,28.40
2019-06-20T12:59:50.088Z,28.30
2019-06-20T13:02:16.836Z,28.30
2019-06-20T13:04:43.908Z,28.30
2019-06-20T13:07:11.009Z,28.50
2019-06-20T13:09:39.446Z,28.60
2019-06-20T13:12:06.724Z,29.10
2019-06-20T13:14:33.493Z,29.70
2019-06-20T13:17:00.568Z,30.30
2019-06-20T13:19:27.784Z,30.70
2019-06-20T13:21:54.764Z,30.70
2019-06-20T13:24:21.688Z,30.50
2019-06-20T13:26:49.004Z,30.30
2019-06-20T13:29:17.674Z,30.20
2019-06-20T13:31:59.001Z,30.00
2019-06-20T13:34:13.031Z,29.90
2019-06-20T13:36:41.210Z,29.70
2019-06-20T13:39:08.754Z,29.40
2019-06-20T13:41:35.713Z,29.20
2019-06-20T13:44:02.942Z,29.20
2019-06-20T13:46:29.670Z,29.20
2019-06-20T13:48:56.392Z,29.60
2019-06-20T13:51:23.411Z,30.20
2019-06-20T13:53:50.638Z,30.50
2019-06-20T13:56:17.747Z,30.60
2019-06-20T13:58:44.839Z,30.60
2019-06-20T14:01:11.726Z,30.40
2019-06-20T14:03:40.522Z,30.30
2019-06-20T14:06:07.411Z,30.20
2019-06-20T14:08:34.923Z,30.20
2019-06-20T14:11:01.992Z,30.10
2019-06-20T14:13:28.713Z,29.60
2019-06-20T14:15:55.401Z,29.00
2019-06-20T14:18:22.351Z,28.70
2019-06-20T14:20:49.029Z,28.60
2019-06-20T14:23:15.720Z,28.50
2019-06-20T14:25:43.715Z,28.30
2019-06-20T14:28:10.887Z,28.00
2019-06-20T14:30:37.711Z,27.60
2019-06-20T14:33:04.517Z,26.50
2019-06-20T14:35:31.203Z,25.80
2019-06-20T14:37:58.441Z,25.40
2019-06-20T14:40:25.359Z,25.20
2019-06-20T14:42:52.475Z,25.00
2019-06-20T14:45:19.870Z,24.90
2019-06-20T14:47:46.807Z,24.80
2019-06-20T14:50:14.117Z,24.90
2019-06-20T14:52:41.088Z,25.10
2019-06-20T14:55:08.439Z,24.60
2019-06-20T14:57:35.388Z,24.40
2019-06-20T15:00:02.553Z,24.20
2019-06-20T15:02:38.564Z,24.40
2019-06-20T15:04:58.551Z,24.50
2019-06-20T15:07:25.637Z,24.20
2019-06-20T15:09:53.218Z,24.80
2019-06-20T15:12:20.132Z,24.70
2019-06-20T15:14:48.299Z,24.80
2019-06-20T15:17:16.271Z,25.20
2019-06-20T15:19:44.910Z,25.60
2019-06-20T15:22:12.851Z,25.40
2019-06-20T15:24:39.651Z,25.40
2019-06-20T15:27:06.569Z,25.90
2019-06-20T15:29:33.803Z,25.90
2019-06-20T15:32:00.910Z,26.10
2019-06-20T15:34:27.897Z,25.90
2019-06-20T15:36:55.177Z,26.10
2019-06-20T15:39:22.165Z,25.40
2019-06-20T15:41:49.949Z,25.50
2019-06-20T15:44:16.836Z,25.30
2019-06-20T15:46:43.835Z,24.90
2019-06-20T15:49:16.108Z,25.00
2019-06-20T15:51:39.720Z,24.90
2019-06-20T15:54:06.429Z,24.60
2019-06-20T15:56:33.123Z,24.80
2019-06-20T15:58:59.894Z,25.00
2019-06-20T16:01:26.835Z,25.10
2019-06-20T16:03:53.886Z,25.20
2019-06-20T16:06:20.662Z,25.10
2019-06-20T16:08:47.395Z,25.60
2019-06-20T16:11:14.487Z,26.10
2019-06-20T16:13:41.359Z,26.00
2019-06-20T16:16:08.068Z,26.10
2019-06-20T16:18:35.195Z,25.80
2019-06-20T16:21:02.120Z,25.60
2019-06-20T16:23:28.847Z,25.60
2019-06-20T16:25:55.659Z,25.90
2019-06-20T16:28:22.356Z,26.10
2019-06-20T16:30:49.183Z,26.10
2019-06-20T16:33:24.783Z,26.30
2019-06-20T16:35:44.819Z,26.70
2019-06-20T16:38:11.511Z,27.20
2019-06-20T16:40:44.246Z,27.30
2019-06-20T16:43:11.027Z,27.20
2019-06-20T16:45:37.951Z,26.90
2019-06-20T16:48:05.129Z,26.80
2019-06-20T16:50:32.439Z,26.90
2019-06-20T16:53:01.252Z,26.70
2019-06-20T16:55:27.869Z,26.60
2019-06-20T16:57:54.576Z,26.60
2019-06-20T17:00:21.572Z,27.00
2019-06-20T17:02:48.383Z,26.80
2019-06-20T17:05:15.535Z,26.70
2019-06-20T17:07:42.428Z,26.60
2019-06-20T17:10:09.924Z,26.30
2019-06-20T17:12:37.002Z,26.00
2019-06-20T17:15:04.509Z,25.70
2019-06-20T17:17:31.487Z,25.50
2019-06-20T17:19:58.300Z,25.00
2019-06-20T17:22:25.451Z,25.10
2019-06-20T17:24:52.419Z,25.10
2019-06-20T17:27:19.401Z,25.40
2019-06-20T17:29:46.657Z,25.50
2019-06-20T17:32:13.772Z,25.60
2019-06-20T17:34:40.720Z,25.60
2019-06-20T17:37:07.576Z,25.70
2019-06-20T17:39:34.348Z,25.30
2019-06-20T17:42:01.124Z,24.50
2019-06-20T17:44:28.031Z,23.90
2019-06-20T17:46:55.179Z,24.00
2019-06-20T17:49:21.914Z,23.90
2019-06-20T17:51:48.898Z,23.90
2019-06-20T17:54:15.596Z,23.80
2019-06-20T17:56:42.284Z,23.90
2019-06-20T17:59:09.092Z,23.60
2019-06-20T18:01:36.217Z,23.30
2019-06-20T18:04:13.408Z,23.40
2019-06-20T18:06:32.000Z,23.40
2019-06-20T18:08:58.677Z,23.40
2019-06-20T18:11:25.513Z,23.60
2019-06-20T18:13:52.321Z,23.80
2019-06-20T18:16:25.032Z,23.50
2019-06-20T18:18:48.397Z,23.50
2019-06-20T18:21:15.376Z,23.60
2019-06-20T18:23:42.155Z,23.70
2019-06-20T18:26:09.316Z,23.70
2019-06-20T18:28:36.013Z,23.00
2019-06-20T18:31:02.905Z,22.80
2019-06-20T18:33:30.039Z,22.40
2019-06-20T18:35:56.719Z,22.20
2019-06-20T18:38:23.430Z,22.00
2019-06-20T18:40:50.117Z,22.10
2019-06-20T18:43:17.119Z,22.20
2019-06-20T18:45:43.933Z,22.20
2019-06-20T18:48:10.645Z,22.00
2019-06-20T18:50:37.449Z,21.70
2019-06-20T18:53:04.626Z,21.40
2019-06-20T18:55:31.437Z,21.50
2019-06-20T18:57:58.422Z,21.40
2019-06-20T19:00:34.734Z,21.10
2019-06-20T19:02:54.855Z,21.00
2019-06-20T19:05:22.037Z,20.70
2019-06-20T19:07:48.728Z,20.50
2019-06-20T19:10:20.175Z,20.50
2019-06-20T19:12:46.864Z,20.40
2019-06-20T19:15:13.942Z,20.40
2019-06-20T19:17:40.641Z,20.50
2019-06-20T19:20:07.955Z,20.40
2019-06-20T19:22:34.671Z,20.30
2019-06-20T19:25:03.949Z,20.10
2019-06-20T19:27:44.968Z,20.00
2019-06-20T19:29:59.504Z,19.70
2019-06-20T19:32:26.218Z,19.70
2019-06-20T19:35:01.812Z,19.90
2019-06-20T19:37:21.872Z,20.10
2019-06-20T19:39:48.706Z,20.20
2019-06-20T19:42:15.803Z,20.00
2019-06-20T19:44:42.480Z,19.90
2019-06-20T19:47:09.233Z,19.80
2019-06-20T19:49:36.217Z,19.90
2019-06-20T19:52:03.233Z,20.10
2019-06-20T19:54:30.113Z,20.10
2019-06-20T19:56:56.928Z,20.20
2019-06-20T19:59:23.934Z,20.20
2019-06-20T20:01:50.980Z,20.20
2019-06-20T20:04:18.135Z,20.30
2019-06-20T20:06:45.203Z,20.40
2019-06-20T20:09:12.267Z,20.40
2019-06-20T20:11:38.977Z,20.40
2019-06-20T20:14:05.766Z,20.40
2019-06-20T20:16:32.580Z,20.30
2019-06-20T20:18:59.313Z,20.30
2019-06-20T20:21:26.028Z,20.30
2019-06-20T20:23:53.279Z,20.30
2019-06-20T20:26:19.993Z,20.30
2019-06-20T20:28:46.707Z,20.40
2019-06-20T20:31:13.397Z,20.20
2019-06-20T20:33:40.305Z,19.90
2019-06-20T20:36:07.348Z,19.90
2019-06-20T20:38:34.031Z,19.90
2019-06-20T20:41:00.738Z,19.90
2019-06-20T20:43:27.905Z,19.80
2019-06-20T20:45:54.712Z,19.80
2019-06-20T20:48:21.415Z,19.70
2019-06-20T20:50:48.266Z,19.60
2019-06-20T20:53:15.258Z,19.60
2019-06-20T20:55:42.207Z,19.60
2019-06-20T20:58:28.568Z,19.60
2019-06-20T21:01:12.600Z,19.60
2019-06-20T21:03:39.285Z,19.70
2019-06-20T21:06:06.057Z,19.80
2019-06-20T21:08:33.066Z,19.80
2019-06-20T21:11:00.177Z,19.80
2019-06-20T21:13:27.170Z,19.80
2019-06-20T21:15:53.932Z,19.60
2019-06-20T21:18:20.607Z,19.80
2019-06-20T21:20:47.319Z,19.60
2019-06-20T21:23:14.008Z,19.70
2019-06-20T21:25:40.980Z,19.60
2019-06-20T21:28:07.767Z,19.30
2019-06-20T21:30:34.805Z,19.10
2019-06-20T21:33:01.630Z,18.80
2019-06-20T21:35:28.694Z,18.70
2019-06-20T21:37:55.372Z,18.60
2019-06-20T21:40:22.160Z,18.70
2019-06-20T21:42:48.935Z,18.80
2019-06-20T21:45:16.231Z,18.80
2019-06-20T21:47:43.179Z,18.80
2019-06-20T21:50:10.531Z,18.80
2019-06-20T21:52:37.693Z,18.80
2019-06-20T21:55:05.060Z,18.80
2019-06-20T21:57:31.745Z,18.90
2019-06-20T21:59:58.427Z,18.90
2019-06-20T22:02:25.452Z,18.90
2019-06-20T22:04:54.718Z,18.90
2019-06-20T22:07:21.043Z,18.70
2019-06-20T22:09:47.835Z,18.70
2019-06-20T22:12:14.659Z,18.60
2019-06-20T22:14:41.328Z,18.50
2019-06-20T22:17:08.229Z,18.40
2019-06-20T22:19:35.668Z,18.40
2019-06-20T22:22:02.732Z,18.50
2019-06-20T22:24:29.615Z,18.50
2019-06-20T22:26:56.976Z,18.60
2019-06-20T22:29:23.780Z,18.60
2019-06-20T22:31:50.567Z,18.70
2019-06-20T22:34:17.612Z,18.70
2019-06-20T22:36:44.393Z,18.40
2019-06-20T22:39:11.192Z,18.10
2019-06-20T22:41:37.873Z,18.00
2019-06-20T22:44:05.032Z,17.90
2019-06-20T22:46:31.762Z,17.70
2019-06-20T22:48:58.671Z,17.60
2019-06-20T22:51:25.888Z,17.60
2019-06-20T22:53:53.028Z,17.40
2019-06-20T22:56:19.856Z,17.40
2019-06-20T22:58:46.547Z,17.30
2019-06-20T23:01:13.464Z,17.30
2019-06-20T23:03:40.488Z,17.30
2019-06-20T23:06:07.536Z,17.00
2019-06-20T23:08:34.212Z,16.80
2019-06-20T23:11:00.936Z,16.70
2019-06-20T23:13:27.632Z,16.70
2019-06-20T23:15:54.321Z,16.60
2019-06-20T23:18:21.316Z,16.50
2019-06-20T23:21:03.669Z,16.40
2019-06-20T23:23:17.013Z,16.50
2019-06-20T23:25:46.412Z,16.40
2019-06-20T23:28:13.691Z,16.40
2019-06-20T23:30:40.720Z,16.50
2019-06-20T23:33:07.438Z,16.50
2019-06-20T23:35:34.943Z,16.50
2019-06-20T23:38:01.659Z,16.70
2019-06-20T23:40:28.599Z,16.80
2019-06-20T23:42:55.827Z,16.80
2019-06-20T23:45:22.618Z,17.10
2019-06-20T23:47:50.136Z,17.30
2019-06-20T23:50:19.844Z,17.30
2019-06-20T23:52:51.351Z,17.20
2019-06-20T23:55:18.163Z,17.20
2019-06-20T23:57:45.118Z,17.30
